sensor_id;sensor_type;location;lat;lon;timestamp;P1;durP1;ratioP1;P2;durP2;ratioP2
11535;SDS011;5824;49.336;8.652;2022-10-17T00:00:22;4.03;;;3.10;;
11535;SDS011;5824;49.336;8.652;2022-10-17T00:02:47;7.83;;;3.50;;
11535;SDS011;5824;49.336;8.652;2022-10-17T00:05:13;4.40;;;3.50;;
11535;SDS011;5824;49.336;8.652;2022-10-17T00:07:38;7.73;;;3.70;;
11535;SDS011;5824;49.336;8.652;2022-10-17T00:10:05;4.70;;;3.50;;
11535;SDS011;5824;49.336;8.652;2022-10-17T00:12:31;6.00;;;3.53;;
11535;SDS011;5824;49.336;8.652;2022-10-17T00:14:57;6.87;;;3.50;;
11535;SDS011;5824;49.336;8.652;2022-10-17T00:17:22;7.50;;;3.50;;
11535;SDS011;5824;49.336;8.652;2022-10-17T00:19:48;5.20;;;3.30;;
11535;SDS011;5824;49.336;8.652;2022-10-17T00:22:13;9.50;;;3.50;;
11535;SDS011;5824;49.336;8.652;2022-10-17T00:24:39;7.13;;;3.50;;
11535;SDS011;5824;49.336;8.652;2022-10-17T00:27:04;4.60;;;3.20;;
11535;SDS011;5824;49.336;8.652;2022-10-17T00:29:30;11.20;;;3.90;;
11535;SDS011;5824;49.336;8.652;2022-10-17T00:31:56;6.60;;;4.13;;
11535;SDS011;5824;49.336;8.652;2022-10-17T00:34:22;6.63;;;3.43;;
11535;SDS011;5824;49.336;8.652;2022-10-17T00:36:48;8.90;;;3.77;;
11535;SDS011;5824;49.336;8.652;2022-10-17T00:39:14;5.93;;;3.33;;
11535;SDS011;5824;49.336;8.652;2022-10-17T00:41:40;4.53;;;3.37;;
11535;SDS011;5824;49.336;8.652;2022-10-17T00:46:53;4.10;;;3.20;;
11535;SDS011;5824;49.336;8.652;2022-10-17T00:49:19;3.83;;;2.90;;
11535;SDS011;5824;49.336;8.652;2022-10-17T00:52:05;11.20;;;3.33;;
11535;SDS011;5824;49.336;8.652;2022-10-17T00:54:38;7.90;;;3.53;;
11535;SDS011;5824;49.336;8.652;2022-10-17T00:57:08;6.83;;;3.60;;
11535;SDS011;5824;49.336;8.652;2022-10-17T00:59:35;9.40;;;3.30;;
11535;SDS011;5824;49.336;8.652;2022-10-17T01:02:12;8.80;;;3.20;;
11535;SDS011;5824;49.336;8.652;2022-10-17T01:04:40;3.33;;;2.80;;
11535;SDS011;5824;49.336;8.652;2022-10-17T01:07:08;8.47;;;3.27;;
11535;SDS011;5824;49.336;8.652;2022-10-17T01:09:34;6.83;;;3.00;;
11535;SDS011;5824;49.336;8.652;2022-10-17T01:14:45;16.63;;;3.63;;
11535;SDS011;5824;49.336;8.652;2022-10-17T01:17:39;7.90;;;3.30;;
11535;SDS011;5824;49.336;8.652;2022-10-17T01:20:24;22.57;;;3.60;;
11535;SDS011;5824;49.336;8.652;2022-10-17T01:26:21;10.37;;;3.70;;
11535;SDS011;5824;49.336;8.652;2022-10-17T01:29:12;7.30;;;3.33;;
11535;SDS011;5824;49.336;8.652;2022-10-17T01:31:51;6.80;;;2.97;;
11535;SDS011;5824;49.336;8.652;2022-10-17T01:37:04;4.40;;;3.00;;
11535;SDS011;5824;49.336;8.652;2022-10-17T01:39:43;12.73;;;3.30;;
11535;SDS011;5824;49.336;8.652;2022-10-17T01:42:54;5.07;;;2.90;;
11535;SDS011;5824;49.336;8.652;2022-10-17T01:48:07;3.80;;;3.20;;
11535;SDS011;5824;49.336;8.652;2022-10-17T01:50:38;6.33;;;3.03;;
11535;SDS011;5824;49.336;8.652;2022-10-17T01:53:10;7.93;;;3.03;;
11535;SDS011;5824;49.336;8.652;2022-10-17T01:55:40;7.83;;;3.17;;
11535;SDS011;5824;49.336;8.652;2022-10-17T01:58:15;4.07;;;3.40;;
11535;SDS011;5824;49.336;8.652;2022-10-17T02:00:50;10.10;;;3.17;;
11535;SDS011;5824;49.336;8.652;2022-10-17T02:03:18;5.00;;;3.10;;
11535;SDS011;5824;49.336;8.652;2022-10-17T02:05:45;11.53;;;3.20;;
11535;SDS011;5824;49.336;8.652;2022-10-17T02:08:11;7.20;;;3.43;;
11535;SDS011;5824;49.336;8.652;2022-10-17T02:10:42;8.03;;;3.53;;
11535;SDS011;5824;49.336;8.652;2022-10-17T02:16:33;17.30;;;3.60;;
11535;SDS011;5824;49.336;8.652;2022-10-17T02:19:13;6.93;;;3.50;;
11535;SDS011;5824;49.336;8.652;2022-10-17T02:27:22;3.43;;;3.10;;
11535;SDS011;5824;49.336;8.652;2022-10-17T02:30:14;9.30;;;3.33;;
11535;SDS011;5824;49.336;8.652;2022-10-17T02:35:27;12.17;;;4.07;;
11535;SDS011;5824;49.336;8.652;2022-10-17T02:37:56;9.97;;;3.13;;
11535;SDS011;5824;49.336;8.652;2022-10-17T02:40:24;4.73;;;3.27;;
11535;SDS011;5824;49.336;8.652;2022-10-17T02:42:53;8.80;;;3.20;;
11535;SDS011;5824;49.336;8.652;2022-10-17T02:45:19;7.50;;;3.47;;
11535;SDS011;5824;49.336;8.652;2022-10-17T02:47:58;6.30;;;3.23;;
11535;SDS011;5824;49.336;8.652;2022-10-17T02:50:32;11.37;;;3.07;;
11535;SDS011;5824;49.336;8.652;2022-10-17T02:53:11;10.30;;;3.70;;
11535;SDS011;5824;49.336;8.652;2022-10-17T02:55:49;10.50;;;3.47;;
11535;SDS011;5824;49.336;8.652;2022-10-17T02:58:19;17.23;;;3.50;;
11535;SDS011;5824;49.336;8.652;2022-10-17T03:00:49;14.13;;;4.50;;
11535;SDS011;5824;49.336;8.652;2022-10-17T03:05:44;5.27;;;3.53;;
11535;SDS011;5824;49.336;8.652;2022-10-17T03:08:10;10.07;;;3.10;;
11535;SDS011;5824;49.336;8.652;2022-10-17T03:10:35;8.57;;;3.47;;
11535;SDS011;5824;49.336;8.652;2022-10-17T03:13:01;6.53;;;3.70;;
11535;SDS011;5824;49.336;8.652;2022-10-17T03:15:26;3.33;;;3.03;;
11535;SDS011;5824;49.336;8.652;2022-10-17T03:17:52;5.07;;;3.03;;
11535;SDS011;5824;49.336;8.652;2022-10-17T03:20:17;5.63;;;3.40;;
11535;SDS011;5824;49.336;8.652;2022-10-17T03:22:43;5.37;;;3.20;;
11535;SDS011;5824;49.336;8.652;2022-10-17T03:25:08;5.63;;;3.30;;
11535;SDS011;5824;49.336;8.652;2022-10-17T03:27:34;6.87;;;3.70;;
11535;SDS011;5824;49.336;8.652;2022-10-17T03:30:00;5.37;;;3.03;;
11535;SDS011;5824;49.336;8.652;2022-10-17T03:32:25;11.87;;;3.40;;
11535;SDS011;5824;49.336;8.652;2022-10-17T03:34:51;7.70;;;3.67;;
11535;SDS011;5824;49.336;8.652;2022-10-17T03:37:16;8.60;;;3.17;;
11535;SDS011;5824;49.336;8.652;2022-10-17T03:39:42;8.63;;;3.77;;
11535;SDS011;5824;49.336;8.652;2022-10-17T03:42:07;5.23;;;3.70;;
11535;SDS011;5824;49.336;8.652;2022-10-17T03:44:33;6.90;;;3.67;;
11535;SDS011;5824;49.336;8.652;2022-10-17T03:46:58;7.20;;;4.20;;
11535;SDS011;5824;49.336;8.652;2022-10-17T03:49:24;5.23;;;3.60;;
11535;SDS011;5824;49.336;8.652;2022-10-17T03:51:50;11.27;;;3.57;;
11535;SDS011;5824;49.336;8.652;2022-10-17T03:54:15;7.67;;;3.30;;
11535;SDS011;5824;49.336;8.652;2022-10-17T03:56:41;7.37;;;3.37;;
11535;SDS011;5824;49.336;8.652;2022-10-17T03:59:08;4.03;;;3.00;;
11535;SDS011;5824;49.336;8.652;2022-10-17T04:01:39;3.47;;;3.17;;
11535;SDS011;5824;49.336;8.652;2022-10-17T04:04:04;7.37;;;3.40;;
11535;SDS011;5824;49.336;8.652;2022-10-17T04:06:30;6.63;;;3.47;;
11535;SDS011;5824;49.336;8.652;2022-10-17T04:08:56;7.53;;;3.67;;
11535;SDS011;5824;49.336;8.652;2022-10-17T04:11:21;4.50;;;3.40;;
11535;SDS011;5824;49.336;8.652;2022-10-17T04:13:51;7.50;;;3.90;;
11535;SDS011;5824;49.336;8.652;2022-10-17T04:16:18;7.47;;;3.93;;
11535;SDS011;5824;49.336;8.652;2022-10-17T04:18:44;7.40;;;4.47;;
11535;SDS011;5824;49.336;8.652;2022-10-17T04:21:09;6.90;;;4.13;;
11535;SDS011;5824;49.336;8.652;2022-10-17T04:23:36;7.33;;;4.03;;
11535;SDS011;5824;49.336;8.652;2022-10-17T04:26:02;9.40;;;4.17;;
11535;SDS011;5824;49.336;8.652;2022-10-17T04:28:29;7.40;;;4.00;;
11535;SDS011;5824;49.336;8.652;2022-10-17T04:31:00;10.43;;;4.00;;
11535;SDS011;5824;49.336;8.652;2022-10-17T04:33:27;8.43;;;3.70;;
11535;SDS011;5824;49.336;8.652;2022-10-17T04:35:59;7.20;;;4.53;;
11535;SDS011;5824;49.336;8.652;2022-10-17T04:38:27;5.53;;;3.40;;
11535;SDS011;5824;49.336;8.652;2022-10-17T04:40:55;8.07;;;3.30;;
11535;SDS011;5824;49.336;8.652;2022-10-17T04:43:21;7.83;;;3.40;;
11535;SDS011;5824;49.336;8.652;2022-10-17T04:45:47;6.90;;;3.27;;
11535;SDS011;5824;49.336;8.652;2022-10-17T04:48:13;6.90;;;4.00;;
11535;SDS011;5824;49.336;8.652;2022-10-17T04:50:38;10.00;;;3.47;;
11535;SDS011;5824;49.336;8.652;2022-10-17T04:53:04;11.83;;;4.50;;
11535;SDS011;5824;49.336;8.652;2022-10-17T04:55:29;11.87;;;4.43;;
11535;SDS011;5824;49.336;8.652;2022-10-17T04:57:55;7.77;;;4.10;;
11535;SDS011;5824;49.336;8.652;2022-10-17T05:00:20;11.13;;;3.93;;
11535;SDS011;5824;49.336;8.652;2022-10-17T05:02:46;9.43;;;3.90;;
11535;SDS011;5824;49.336;8.652;2022-10-17T05:05:11;6.50;;;4.27;;
11535;SDS011;5824;49.336;8.652;2022-10-17T05:07:40;5.40;;;4.20;;
11535;SDS011;5824;49.336;8.652;2022-10-17T05:10:05;6.17;;;4.27;;
11535;SDS011;5824;49.336;8.652;2022-10-17T05:12:31;8.57;;;3.83;;
11535;SDS011;5824;49.336;8.652;2022-10-17T05:14:57;6.97;;;4.13;;
11535;SDS011;5824;49.336;8.652;2022-10-17T05:17:23;7.77;;;4.13;;
11535;SDS011;5824;49.336;8.652;2022-10-17T05:19:48;8.30;;;4.63;;
11535;SDS011;5824;49.336;8.652;2022-10-17T05:22:14;6.50;;;4.90;;
11535;SDS011;5824;49.336;8.652;2022-10-17T05:24:39;11.77;;;5.13;;
11535;SDS011;5824;49.336;8.652;2022-10-17T05:27:05;7.73;;;5.27;;
11535;SDS011;5824;49.336;8.652;2022-10-17T05:29:30;6.30;;;4.70;;
11535;SDS011;5824;49.336;8.652;2022-10-17T05:31:56;8.40;;;4.20;;
11535;SDS011;5824;49.336;8.652;2022-10-17T05:34:22;6.80;;;4.10;;
11535;SDS011;5824;49.336;8.652;2022-10-17T05:36:49;8.30;;;4.60;;
11535;SDS011;5824;49.336;8.652;2022-10-17T05:39:14;6.80;;;4.20;;
11535;SDS011;5824;49.336;8.652;2022-10-17T05:41:43;6.10;;;3.90;;
11535;SDS011;5824;49.336;8.652;2022-10-17T05:44:09;5.93;;;4.37;;
11535;SDS011;5824;49.336;8.652;2022-10-17T05:46:35;6.80;;;4.47;;
11535;SDS011;5824;49.336;8.652;2022-10-17T05:49:00;9.20;;;3.90;;
11535;SDS011;5824;49.336;8.652;2022-10-17T05:51:26;11.90;;;4.40;;
11535;SDS011;5824;49.336;8.652;2022-10-17T05:53:51;6.40;;;3.70;;
11535;SDS011;5824;49.336;8.652;2022-10-17T05:56:17;8.33;;;4.30;;
11535;SDS011;5824;49.336;8.652;2022-10-17T05:58:44;6.47;;;4.10;;
11535;SDS011;5824;49.336;8.652;2022-10-17T06:01:09;11.83;;;4.10;;
11535;SDS011;5824;49.336;8.652;2022-10-17T06:03:36;7.73;;;4.50;;
11535;SDS011;5824;49.336;8.652;2022-10-17T06:06:03;6.30;;;3.90;;
11535;SDS011;5824;49.336;8.652;2022-10-17T06:08:33;6.43;;;4.43;;
11535;SDS011;5824;49.336;8.652;2022-10-17T06:10:59;11.43;;;4.07;;
11535;SDS011;5824;49.336;8.652;2022-10-17T06:13:25;8.30;;;4.13;;
11535;SDS011;5824;49.336;8.652;2022-10-17T06:15:50;9.50;;;4.27;;
11535;SDS011;5824;49.336;8.652;2022-10-17T06:18:16;6.80;;;4.10;;
11535;SDS011;5824;49.336;8.652;2022-10-17T06:20:42;6.47;;;4.60;;
11535;SDS011;5824;49.336;8.652;2022-10-17T06:23:07;11.27;;;5.27;;
11535;SDS011;5824;49.336;8.652;2022-10-17T06:25:33;4.80;;;4.10;;
11535;SDS011;5824;49.336;8.652;2022-10-17T06:27:58;8.67;;;4.50;;
11535;SDS011;5824;49.336;8.652;2022-10-17T06:30:24;9.60;;;4.00;;
11535;SDS011;5824;49.336;8.652;2022-10-17T06:32:53;4.53;;;4.07;;
11535;SDS011;5824;49.336;8.652;2022-10-17T06:35:18;6.53;;;3.90;;
11535;SDS011;5824;49.336;8.652;2022-10-17T06:37:44;11.70;;;4.70;;
11535;SDS011;5824;49.336;8.652;2022-10-17T06:40:10;5.20;;;4.20;;
11535;SDS011;5824;49.336;8.652;2022-10-17T06:42:36;5.10;;;3.77;;
11535;SDS011;5824;49.336;8.652;2022-10-17T06:45:03;6.40;;;4.30;;
11535;SDS011;5824;49.336;8.652;2022-10-17T06:47:29;10.57;;;3.90;;
11535;SDS011;5824;49.336;8.652;2022-10-17T06:49:55;8.43;;;3.93;;
11535;SDS011;5824;49.336;8.652;2022-10-17T06:52:21;9.40;;;4.10;;
11535;SDS011;5824;49.336;8.652;2022-10-17T06:54:46;8.00;;;4.37;;
11535;SDS011;5824;49.336;8.652;2022-10-17T06:57:12;5.00;;;3.40;;
11535;SDS011;5824;49.336;8.652;2022-10-17T06:59:38;6.30;;;3.43;;
11535;SDS011;5824;49.336;8.652;2022-10-17T07:02:03;6.03;;;3.00;;
11535;SDS011;5824;49.336;8.652;2022-10-17T07:04:30;6.83;;;3.80;;
11535;SDS011;5824;49.336;8.652;2022-10-17T07:06:55;4.07;;;2.93;;
11535;SDS011;5824;49.336;8.652;2022-10-17T07:09:21;4.83;;;3.17;;
11535;SDS011;5824;49.336;8.652;2022-10-17T07:11:48;5.30;;;3.27;;
11535;SDS011;5824;49.336;8.652;2022-10-17T07:14:13;8.87;;;3.40;;
11535;SDS011;5824;49.336;8.652;2022-10-17T07:16:39;8.43;;;3.53;;
11535;SDS011;5824;49.336;8.652;2022-10-17T07:19:04;5.47;;;3.17;;
11535;SDS011;5824;49.336;8.652;2022-10-17T07:21:30;5.10;;;3.00;;
11535;SDS011;5824;49.336;8.652;2022-10-17T07:23:56;3.90;;;3.00;;
11535;SDS011;5824;49.336;8.652;2022-10-17T07:26:22;4.53;;;2.97;;
11535;SDS011;5824;49.336;8.652;2022-10-17T07:28:50;7.77;;;3.60;;
11535;SDS011;5824;49.336;8.652;2022-10-17T07:31:18;7.73;;;3.50;;
11535;SDS011;5824;49.336;8.652;2022-10-17T07:33:45;5.53;;;3.80;;
11535;SDS011;5824;49.336;8.652;2022-10-17T07:36:11;9.60;;;4.00;;
11535;SDS011;5824;49.336;8.652;2022-10-17T07:38:37;7.70;;;3.50;;
11535;SDS011;5824;49.336;8.652;2022-10-17T07:41:04;6.20;;;3.60;;
11535;SDS011;5824;49.336;8.652;2022-10-17T07:43:31;10.93;;;3.63;;
11535;SDS011;5824;49.336;8.652;2022-10-17T07:45:57;5.47;;;3.30;;
11535;SDS011;5824;49.336;8.652;2022-10-17T07:48:24;6.13;;;3.63;;
11535;SDS011;5824;49.336;8.652;2022-10-17T07:50:50;8.77;;;4.10;;
11535;SDS011;5824;49.336;8.652;2022-10-17T07:53:16;7.70;;;4.53;;
11535;SDS011;5824;49.336;8.652;2022-10-17T07:55:41;9.47;;;4.50;;
11535;SDS011;5824;49.336;8.652;2022-10-17T07:58:08;8.90;;;4.57;;
11535;SDS011;5824;49.336;8.652;2022-10-17T08:00:35;7.37;;;4.43;;
11535;SDS011;5824;49.336;8.652;2022-10-17T08:03:01;5.30;;;3.53;;
11535;SDS011;5824;49.336;8.652;2022-10-17T08:05:27;7.17;;;4.47;;
11535;SDS011;5824;49.336;8.652;2022-10-17T08:07:53;12.10;;;4.47;;
11535;SDS011;5824;49.336;8.652;2022-10-17T08:10:19;6.63;;;4.13;;
11535;SDS011;5824;49.336;8.652;2022-10-17T08:12:45;5.53;;;3.70;;
11535;SDS011;5824;49.336;8.652;2022-10-17T08:15:11;7.93;;;3.90;;
11535;SDS011;5824;49.336;8.652;2022-10-17T08:17:36;11.03;;;3.40;;
11535;SDS011;5824;49.336;8.652;2022-10-17T08:20:03;5.37;;;3.83;;
11535;SDS011;5824;49.336;8.652;2022-10-17T08:22:30;15.77;;;3.50;;
11535;SDS011;5824;49.336;8.652;2022-10-17T08:24:56;8.53;;;3.73;;
11535;SDS011;5824;49.336;8.652;2022-10-17T08:27:22;9.80;;;3.43;;
11535;SDS011;5824;49.336;8.652;2022-10-17T08:29:49;6.10;;;3.40;;
11535;SDS011;5824;49.336;8.652;2022-10-17T08:32:19;8.33;;;4.23;;
11535;SDS011;5824;49.336;8.652;2022-10-17T08:34:46;7.00;;;3.33;;
11535;SDS011;5824;49.336;8.652;2022-10-17T08:37:12;9.73;;;3.03;;
11535;SDS011;5824;49.336;8.652;2022-10-17T08:39:38;8.07;;;3.40;;
11535;SDS011;5824;49.336;8.652;2022-10-17T08:42:17;6.77;;;3.30;;
11535;SDS011;5824;49.336;8.652;2022-10-17T08:44:55;12.07;;;3.93;;
11535;SDS011;5824;49.336;8.652;2022-10-17T08:47:45;6.40;;;3.30;;
11535;SDS011;5824;49.336;8.652;2022-10-17T08:50:15;5.73;;;3.83;;
11535;SDS011;5824;49.336;8.652;2022-10-17T08:52:51;8.93;;;3.50;;
11535;SDS011;5824;49.336;8.652;2022-10-17T08:58:03;12.70;;;3.33;;
11535;SDS011;5824;49.336;8.652;2022-10-17T09:00:37;8.10;;;3.90;;
11535;SDS011;5824;49.336;8.652;2022-10-17T09:03:08;6.67;;;3.37;;
11535;SDS011;5824;49.336;8.652;2022-10-17T09:05:46;4.73;;;3.00;;
11535;SDS011;5824;49.336;8.652;2022-10-17T09:08:29;7.73;;;3.00;;
11535;SDS011;5824;49.336;8.652;2022-10-17T09:19:22;6.07;;;3.20;;
11535;SDS011;5824;49.336;8.652;2022-10-17T09:21:52;7.97;;;3.53;;
11535;SDS011;5824;49.336;8.652;2022-10-17T09:30:14;5.32;;;3.30;;
11535;SDS011;5824;49.336;8.652;2022-10-17T09:33:11;6.10;;;3.00;;
11535;SDS011;5824;49.336;8.652;2022-10-17T09:35:41;7.47;;;3.30;;
11535;SDS011;5824;49.336;8.652;2022-10-17T09:38:14;8.20;;;2.88;;
11535;SDS011;5824;49.336;8.652;2022-10-17T09:40:42;4.50;;;3.15;;
11535;SDS011;5824;49.336;8.652;2022-10-17T09:43:10;8.35;;;3.75;;
11535;SDS011;5824;49.336;8.652;2022-10-17T09:45:42;6.60;;;2.95;;
11535;SDS011;5824;49.336;8.652;2022-10-17T09:48:16;7.82;;;3.17;;
11535;SDS011;5824;49.336;8.652;2022-10-17T09:50:48;6.43;;;3.00;;
11535;SDS011;5824;49.336;8.652;2022-10-17T09:53:20;6.18;;;3.10;;
11535;SDS011;5824;49.336;8.652;2022-10-17T09:55:49;5.15;;;2.85;;
11535;SDS011;5824;49.336;8.652;2022-10-17T09:58:19;6.30;;;3.10;;
11535;SDS011;5824;49.336;8.652;2022-10-17T10:00:46;7.32;;;3.30;;
11535;SDS011;5824;49.336;8.652;2022-10-17T10:03:19;9.75;;;3.92;;
11535;SDS011;5824;49.336;8.652;2022-10-17T10:05:59;5.25;;;2.67;;
11535;SDS011;5824;49.336;8.652;2022-10-17T10:08:47;6.88;;;2.85;;
11535;SDS011;5824;49.336;8.652;2022-10-17T10:11:21;6.28;;;2.80;;
11535;SDS011;5824;49.336;8.652;2022-10-17T10:14:11;10.85;;;3.50;;
11535;SDS011;5824;49.336;8.652;2022-10-17T10:16:42;7.65;;;3.40;;
11535;SDS011;5824;49.336;8.652;2022-10-17T10:22:04;12.40;;;3.30;;
11535;SDS011;5824;49.336;8.652;2022-10-17T10:24:38;7.03;;;3.15;;
11535;SDS011;5824;49.336;8.652;2022-10-17T10:27:04;5.50;;;3.28;;
11535;SDS011;5824;49.336;8.652;2022-10-17T10:29:34;9.70;;;2.95;;
11535;SDS011;5824;49.336;8.652;2022-10-17T10:34:32;5.00;;;2.80;;
11535;SDS011;5824;49.336;8.652;2022-10-17T10:37:01;9.10;;;3.22;;
11535;SDS011;5824;49.336;8.652;2022-10-17T10:42:00;7.05;;;3.10;;
11535;SDS011;5824;49.336;8.652;2022-10-17T10:44:28;5.35;;;2.92;;
11535;SDS011;5824;49.336;8.652;2022-10-17T10:47:13;9.45;;;3.10;;
11535;SDS011;5824;49.336;8.652;2022-10-17T10:50:17;10.20;;;3.40;;
11535;SDS011;5824;49.336;8.652;2022-10-17T10:52:48;4.97;;;2.85;;
11535;SDS011;5824;49.336;8.652;2022-10-17T10:55:21;14.68;;;3.40;;
11535;SDS011;5824;49.336;8.652;2022-10-17T10:57:51;5.57;;;3.05;;
11535;SDS011;5824;49.336;8.652;2022-10-17T11:00:20;4.95;;;2.80;;
11535;SDS011;5824;49.336;8.652;2022-10-17T11:02:53;5.93;;;2.90;;
11535;SDS011;5824;49.336;8.652;2022-10-17T11:05:39;6.05;;;2.80;;
11535;SDS011;5824;49.336;8.652;2022-10-17T11:13:40;11.32;;;3.42;;
11535;SDS011;5824;49.336;8.652;2022-10-17T11:19:12;5.03;;;2.85;;
11535;SDS011;5824;49.336;8.652;2022-10-17T11:21:57;9.50;;;3.60;;
11535;SDS011;5824;49.336;8.652;2022-10-17T11:24:58;4.70;;;2.95;;
11535;SDS011;5824;49.336;8.652;2022-10-17T11:27:29;6.93;;;3.17;;
11535;SDS011;5824;49.336;8.652;2022-10-17T11:29:55;6.75;;;3.17;;
11535;SDS011;5824;49.336;8.652;2022-10-17T11:35:15;10.13;;;3.40;;
11535;SDS011;5824;49.336;8.652;2022-10-17T11:38:02;5.60;;;3.05;;
11535;SDS011;5824;49.336;8.652;2022-10-17T11:40:49;4.03;;;2.80;;
11535;SDS011;5824;49.336;8.652;2022-10-17T11:45:57;5.72;;;2.80;;
11535;SDS011;5824;49.336;8.652;2022-10-17T11:48:40;5.10;;;2.47;;
11535;SDS011;5824;49.336;8.652;2022-10-17T11:51:12;6.95;;;2.90;;
11535;SDS011;5824;49.336;8.652;2022-10-17T11:53:44;7.53;;;2.85;;
11535;SDS011;5824;49.336;8.652;2022-10-17T11:56:43;8.65;;;2.70;;
11535;SDS011;5824;49.336;8.652;2022-10-17T11:59:24;11.65;;;2.80;;
11535;SDS011;5824;49.336;8.652;2022-10-17T12:02:48;9.10;;;3.05;;
11535;SDS011;5824;49.336;8.652;2022-10-17T12:05:24;4.93;;;2.40;;
11535;SDS011;5824;49.336;8.652;2022-10-17T12:08:11;6.15;;;2.70;;
11535;SDS011;5824;49.336;8.652;2022-10-17T12:16:58;5.40;;;2.83;;
11535;SDS011;5824;49.336;8.652;2022-10-17T12:19:25;6.93;;;2.58;;
11535;SDS011;5824;49.336;8.652;2022-10-17T12:21:59;11.27;;;2.92;;
11535;SDS011;5824;49.336;8.652;2022-10-17T12:27:39;10.02;;;2.63;;
11535;SDS011;5824;49.336;8.652;2022-10-17T12:32:39;4.18;;;2.90;;
11535;SDS011;5824;49.336;8.652;2022-10-17T12:35:19;10.27;;;2.90;;
11535;SDS011;5824;49.336;8.652;2022-10-17T12:42:59;5.68;;;2.60;;
11535;SDS011;5824;49.336;8.652;2022-10-17T12:56:11;7.65;;;2.95;;
11535;SDS011;5824;49.336;8.652;2022-10-17T12:58:41;3.65;;;2.50;;
11535;SDS011;5824;49.336;8.652;2022-10-17T13:01:13;7.30;;;3.03;;
11535;SDS011;5824;49.336;8.652;2022-10-17T13:03:46;7.68;;;2.80;;
11535;SDS011;5824;49.336;8.652;2022-10-17T13:06:19;6.05;;;2.90;;
11535;SDS011;5824;49.336;8.652;2022-10-17T13:08:59;5.15;;;2.65;;
11535;SDS011;5824;49.336;8.652;2022-10-17T13:11:28;5.10;;;2.75;;
11535;SDS011;5824;49.336;8.652;2022-10-17T13:13:59;10.20;;;2.78;;
11535;SDS011;5824;49.336;8.652;2022-10-17T13:18:52;5.20;;;3.00;;
11535;SDS011;5824;49.336;8.652;2022-10-17T13:21:18;8.43;;;3.25;;
11535;SDS011;5824;49.336;8.652;2022-10-17T13:23:44;11.85;;;3.08;;
11535;SDS011;5824;49.336;8.652;2022-10-17T13:26:17;5.75;;;3.05;;
11535;SDS011;5824;49.336;8.652;2022-10-17T13:28:45;4.88;;;3.00;;
11535;SDS011;5824;49.336;8.652;2022-10-17T13:31:29;9.68;;;3.67;;
11535;SDS011;5824;49.336;8.652;2022-10-17T13:33:58;10.77;;;3.15;;
11535;SDS011;5824;49.336;8.652;2022-10-17T13:36:25;4.50;;;2.90;;
11535;SDS011;5824;49.336;8.652;2022-10-17T13:38:52;4.78;;;2.92;;
11535;SDS011;5824;49.336;8.652;2022-10-17T13:41:19;7.07;;;3.15;;
11535;SDS011;5824;49.336;8.652;2022-10-17T13:43:50;4.18;;;3.17;;
11535;SDS011;5824;49.336;8.652;2022-10-17T13:46:19;10.20;;;3.30;;
11535;SDS011;5824;49.336;8.652;2022-10-17T13:48:50;7.18;;;3.60;;
11535;SDS011;5824;49.336;8.652;2022-10-17T13:51:16;8.10;;;3.40;;
11535;SDS011;5824;49.336;8.652;2022-10-17T13:53:42;5.33;;;3.27;;
11535;SDS011;5824;49.336;8.652;2022-10-17T13:58:41;5.10;;;3.43;;
11535;SDS011;5824;49.336;8.652;2022-10-17T14:01:14;4.73;;;3.10;;
11535;SDS011;5824;49.336;8.652;2022-10-17T14:03:41;9.00;;;3.27;;
11535;SDS011;5824;49.336;8.652;2022-10-17T14:06:29;6.20;;;3.40;;
11535;SDS011;5824;49.336;8.652;2022-10-17T14:08:58;6.30;;;3.77;;
11535;SDS011;5824;49.336;8.652;2022-10-17T14:11:26;6.13;;;3.80;;
11535;SDS011;5824;49.336;8.652;2022-10-17T14:14:02;14.33;;;3.40;;
11535;SDS011;5824;49.336;8.652;2022-10-17T14:16:38;5.47;;;4.00;;
11535;SDS011;5824;49.336;8.652;2022-10-17T14:19:05;10.43;;;3.87;;
11535;SDS011;5824;49.336;8.652;2022-10-17T14:21:51;10.80;;;3.73;;
11535;SDS011;5824;49.336;8.652;2022-10-17T14:27:00;10.90;;;3.63;;
11535;SDS011;5824;49.336;8.652;2022-10-17T14:29:30;7.13;;;4.30;;
11535;SDS011;5824;49.336;8.652;2022-10-17T14:32:03;7.07;;;3.50;;
11535;SDS011;5824;49.336;8.652;2022-10-17T14:34:33;11.67;;;3.50;;
11535;SDS011;5824;49.336;8.652;2022-10-17T14:37:01;11.30;;;3.50;;
11535;SDS011;5824;49.336;8.652;2022-10-17T14:39:33;5.70;;;3.63;;
11535;SDS011;5824;49.336;8.652;2022-10-17T14:41:59;7.10;;;3.37;;
11535;SDS011;5824;49.336;8.652;2022-10-17T14:44:26;6.70;;;3.50;;
11535;SDS011;5824;49.336;8.652;2022-10-17T14:46:56;6.73;;;3.67;;
11535;SDS011;5824;49.336;8.652;2022-10-17T14:49:33;4.93;;;3.20;;
11535;SDS011;5824;49.336;8.652;2022-10-17T14:54:42;8.13;;;3.63;;
11535;SDS011;5824;49.336;8.652;2022-10-17T14:57:17;5.27;;;3.40;;
11535;SDS011;5824;49.336;8.652;2022-10-17T14:59:43;5.93;;;3.43;;
11535;SDS011;5824;49.336;8.652;2022-10-17T15:02:09;6.00;;;3.90;;
11535;SDS011;5824;49.336;8.652;2022-10-17T15:04:35;8.50;;;3.70;;
11535;SDS011;5824;49.336;8.652;2022-10-17T15:07:00;4.90;;;3.40;;
11535;SDS011;5824;49.336;8.652;2022-10-17T15:09:26;6.77;;;3.77;;
11535;SDS011;5824;49.336;8.652;2022-10-17T15:11:53;6.03;;;3.57;;
11535;SDS011;5824;49.336;8.652;2022-10-17T15:14:19;6.50;;;3.37;;
11535;SDS011;5824;49.336;8.652;2022-10-17T15:16:45;10.70;;;4.23;;
11535;SDS011;5824;49.336;8.652;2022-10-17T15:19:11;6.40;;;3.77;;
11535;SDS011;5824;49.336;8.652;2022-10-17T15:21:38;15.50;;;3.97;;
11535;SDS011;5824;49.336;8.652;2022-10-17T15:24:03;8.63;;;3.80;;
11535;SDS011;5824;49.336;8.652;2022-10-17T15:26:30;8.33;;;3.83;;
11535;SDS011;5824;49.336;8.652;2022-10-17T15:28:58;11.63;;;4.20;;
11535;SDS011;5824;49.336;8.652;2022-10-17T15:31:24;10.27;;;4.30;;
11535;SDS011;5824;49.336;8.652;2022-10-17T15:33:51;7.90;;;3.80;;
11535;SDS011;5824;49.336;8.652;2022-10-17T15:38:49;6.10;;;3.83;;
11535;SDS011;5824;49.336;8.652;2022-10-17T15:41:17;6.10;;;3.93;;
11535;SDS011;5824;49.336;8.652;2022-10-17T15:43:43;8.27;;;3.93;;
11535;SDS011;5824;49.336;8.652;2022-10-17T15:46:13;6.67;;;4.33;;
11535;SDS011;5824;49.336;8.652;2022-10-17T15:48:41;8.53;;;4.40;;
11535;SDS011;5824;49.336;8.652;2022-10-17T15:51:07;6.43;;;4.00;;
11535;SDS011;5824;49.336;8.652;2022-10-17T15:53:33;5.53;;;3.70;;
11535;SDS011;5824;49.336;8.652;2022-10-17T15:55:58;5.47;;;4.10;;
11535;SDS011;5824;49.336;8.652;2022-10-17T15:58:24;7.47;;;4.13;;
11535;SDS011;5824;49.336;8.652;2022-10-17T16:00:52;8.63;;;4.83;;
11535;SDS011;5824;49.336;8.652;2022-10-17T16:03:18;9.73;;;4.50;;
11535;SDS011;5824;49.336;8.652;2022-10-17T16:05:43;9.10;;;4.90;;
11535;SDS011;5824;49.336;8.652;2022-10-17T16:08:09;9.47;;;4.87;;
11535;SDS011;5824;49.336;8.652;2022-10-17T16:10:35;6.57;;;4.80;;
11535;SDS011;5824;49.336;8.652;2022-10-17T16:13:03;9.70;;;4.70;;
11535;SDS011;5824;49.336;8.652;2022-10-17T16:15:29;8.97;;;5.00;;
11535;SDS011;5824;49.336;8.652;2022-10-17T16:17:55;6.53;;;3.70;;
11535;SDS011;5824;49.336;8.652;2022-10-17T16:20:22;9.30;;;5.40;;
11535;SDS011;5824;49.336;8.652;2022-10-17T16:22:48;9.63;;;6.10;;
11535;SDS011;5824;49.336;8.652;2022-10-17T16:27:43;12.83;;;5.37;;
11535;SDS011;5824;49.336;8.652;2022-10-17T16:30:12;11.00;;;5.03;;
11535;SDS011;5824;49.336;8.652;2022-10-17T16:32:37;16.37;;;5.33;;
11535;SDS011;5824;49.336;8.652;2022-10-17T16:35:03;10.17;;;5.83;;
11535;SDS011;5824;49.336;8.652;2022-10-17T16:37:29;9.53;;;5.10;;
11535;SDS011;5824;49.336;8.652;2022-10-17T16:39:55;9.63;;;5.10;;
11535;SDS011;5824;49.336;8.652;2022-10-17T16:42:21;16.80;;;5.60;;
11535;SDS011;5824;49.336;8.652;2022-10-17T16:44:47;13.17;;;6.90;;
11535;SDS011;5824;49.336;8.652;2022-10-17T16:47:14;12.52;;;5.30;;
11535;SDS011;5824;49.336;8.652;2022-10-17T16:49:40;14.47;;;5.93;;
11535;SDS011;5824;49.336;8.652;2022-10-17T16:52:06;9.10;;;5.70;;
11535;SDS011;5824;49.336;8.652;2022-10-17T16:54:32;11.00;;;6.67;;
11535;SDS011;5824;49.336;8.652;2022-10-17T16:56:58;17.10;;;6.80;;
11535;SDS011;5824;49.336;8.652;2022-10-17T16:59:25;11.67;;;6.00;;
11535;SDS011;5824;49.336;8.652;2022-10-17T17:01:51;18.63;;;6.10;;